Time;durP1;ratioP1;P1;durP2;ratioP2;P2;SDS_P1;SDS_P2;PMS_P1;PMS_P2;Temp;Humidity;BMP_temperature;BMP_pressure;BME280_temperature;BME280_humidity;BME280_pressure;Samples;Min_cycle;Max_cycle;Signal;HPM_P1;HPM_P2
2021/03/12 00:31:59;;;;;;;40.78;25.08;;;;;;;0.47;72.32;94683.59;825059;71;32744;-87
2021/03/12 01:01:52;;;;;;;38.78;26.30;;;;;;;0.87;72.46;94693.84;795924;72;32888;-84
2021/03/12 01:31:56;;;;;;;;;;;;;;;;;;;;;
2021/03/12 02:01:46;;;;;;;48.28;27.13;;;;;;;0.73;72.59;94666.95;827922;71;33822;-86
2021/03/12 02:31:52;;;;;;;40.08;25.85;;;;;;;0.78;71.65;94636.06;834256;71;32815;-85
2021/03/12 03:01:53;;;;;;;43.70;26.85;;;;;;;0.42;72.49;94600.09;827663;71;32737;-86
2021/03/12 05:16:15;;;;;;;63.78;34.43;;;;;;;1.25;72.47;94538.91;827218;71;32706;-77
2021/03/12 05:31:08;;;;;;;51.48;31.12;;;;;;;0.94;71.86;94522.78;834866;71;29795;-75
2021/03/12 05:46:15;;;;;;;57.50;35.17;;;;;;;1.54;71.64;94603.88;827482;71;33347;-80
2021/03/12 06:01:08;;;;;;;58.90;36.13;;;;;;;1.93;71.48;94593.75;828218;71;29705;-76
2021/03/12 06:16:28;;;;;;;56.25;33.80;;;;;;;2.07;70.72;94627.91;813365;71;32820;-79
2021/03/12 06:31:34;;;;;;;55.52;34.53;;;;;;;6.36;63.60;94611.02;826942;70;33056;-79
2021/03/12 06:46:15;;;;;;;53.75;32.63;;;;;;;5.27;61.29;94663.63;826727;71;32734;-77
2021/03/12 07:01:19;;;;;;;48.98;31.40;;;;;;;4.84;61.54;94694.47;827930;71;29702;-78
2021/03/12 07:16:08;;;;;;;43.50;28.83;;;;;;;4.61;62.03;94709.33;828277;71;30191;-79
2021/03/12 07:31:11;;;;;;;47.62;29.72;;;;;;;5.50;59.31;94699.42;827372;71;30170;-75
2021/03/12 07:46:18;;;;;;;47.13;32.05;;;;;;;5.61;57.60;94686.20;833590;71;32698;-77
2021/03/12 08:01:15;;;;;;;50.80;33.73;;;;;;;6.61;55.99;94670.26;834423;71;32691;-77
2021/03/12 08:16:09;;;;;;;45.35;29.25;;;;;;;6.69;55.32;94631.95;827747;71;29716;-77
2021/03/12 08:31:14;;;;;;;44.75;29.75;;;;;;;6.61;55.40;94702.84;827202;71;32716;-76
2021/03/12 08:46:16;;;;;;;41.73;29.23;;;;;;;7.75;56.09;94682.25;828206;71;32111;-76
2021/03/12 09:01:38;;;;;;;40.28;29.75;;;;;;;9.00;51.43;94684.34;828963;71;31900;-79
2021/03/12 10:46:18;;;;;;;43.75;30.52;;;;;;;12.26;44.95;94609.09;826450;71;32732;-81
2021/03/12 11:01:25;;;;;;;41.25;30.02;;;;;;;12.56;44.98;94578.71;834151;71;30277;-79
2021/03/12 11:16:10;;;;;;;42.10;29.98;;;;;;;12.60;43.18;94560.47;828135;71;31087;-79
2021/03/12 11:31:19;;;;;;;44.05;33.45;;;;;;;11.26;44.62;94555.00;822377;70;32864;-78
2021/03/12 11:46:15;;;;;;;42.85;30.85;;;;;;;11.01;46.88;94540.70;827465;71;32701;-79
2021/03/12 12:01:16;;;;;;;46.83;32.48;;;;;;;11.21;46.51;94512.51;827950;71;32788;-77
2021/03/12 12:16:10;;;;;;;48.28;32.90;;;;;;;10.44;48.21;94484.92;812810;71;29774;-79
2021/03/12 12:31:33;;;;;;;;;;;;;;;;;;;;;
2021/03/12 12:46:19;;;;;;;48.08;32.17;;;;;;;9.78;49.75;94450.73;826979;71;32764;-76
2021/03/12 13:01:07;;;;;;;48.20;29.07;;;;;;;;;;828501;71;30446;-79
2021/03/12 13:16:30;;;;;;;44.63;31.55;;;;;;;10.31;49.27;94435.30;835540;71;32788;-79
2021/03/12 13:31:22;;;;;;;48.25;31.70;;;;;;;10.78;50.00;91074.36;827615;71;33165;-79
2021/03/12 13:46:17;;;;;;;49.30;34.53;;;;;;;10.82;49.60;94425.25;826963;71;32777;-79
2021/03/12 14:01:18;;;;;;;49.98;34.60;;;;;;;10.67;50.46;94412.41;834429;71;30866;-79
2021/03/12 14:16:09;;;;;;;49.20;32.70;;;;;;;10.03;50.97;94360.45;828768;71;30221;-78
2021/03/12 14:31:13;;;;;;;50.52;35.23;;;;;;;9.92;52.94;94391.84;828204;71;32004;-77
2021/03/12 14:46:17;;;;;;;55.00;35.30;;;;;;;9.66;55.43;94383.57;827280;71;32736;-78
2021/03/12 15:01:31;;;;;;;43.40;30.43;;;;;;;9.46;58.62;94374.69;827490;71;29731;-77
2021/03/12 15:16:14;;;;;;;36.42;23.47;;;;;;;9.30;60.23;94357.09;826436;71;32833;-78
2021/03/12 15:31:14;;;;;;;22.58;15.85;;;;;;;9.34;59.71;94351.55;833735;71;32720;-75
2021/03/12 15:46:19;;;;;;;17.92;13.90;;;;;;;9.21;58.81;94338.63;827293;71;32705;-78
2021/03/12 16:01:08;;;;;;;18.12;12.15;;;;;;;8.96;58.06;94315.66;829120;71;29743;-78
2021/03/12 16:16:08;;;;;;;26.85;16.37;;;;;;;8.51;58.96;94326.12;834330;71;29667;-76
2021/03/12 22:46:39;;;;;;;40.65;26.37;;;;;;;4.70;73.93;94353.11;828592;70;31765;-85
2021/03/12 23:16:39;;;;;;;43.98;26.93;;;;;;;4.64;74.38;94319.05;822153;71;31776;-83
